Date,TemperatureHighF,TemperatureAvgF,TemperatureLowF,DewpointHighF,DewpointAvgF,DewpointLowF,HumidityHigh,HumidityAvg,HumidityLow,PressureMaxIn,PressureMinIn,WindSpeedMaxMPH,WindSpeedAvgMPH,GustSpeedMaxMPH,PrecipitationSumIn
2013-8-1,74.0,63.7,58.9,66.1,61.1,58.0,99,92,70,30.02,29.84,19,7,27,0.23
2013-8-2,76.4,68.5,61.1,65.0,58.6,52.6,100,74,46,29.85,29.79,14,6,21,0.00
2013-8-3,74.9,66.2,58.5,60.2,55.2,51.3,91,69,46,29.85,29.77,21,6,27,0.00
2013-8-4,73.6,63.8,56.4,57.6,53.2,49.8,84,69,48,29.91,29.80,12,4,16,0.00
2013-8-5,70.6,59.6,51.5,49.8,46.0,40.5,90,64,34,30.04,29.91,13,5,19,0.00
2013-8-6,72.5,63.0,49.8,55.1,49.6,44.8,93,63,41,30.12,30.05,11,4,14,0.00
2013-8-7,74.2,65.0,58.3,60.3,57.0,54.6,94,77,52,30.16,30.06,16,8,19,0.00
2013-8-8,77.9,69.1,61.8,69.9,65.9,60.1,99,90,75,30.06,29.97,18,10,21,0.00
2013-8-9,71.4,69.2,66.1,70.9,68.5,65.8,99,98,94,29.98,29.74,20,7,23,1.75
2013-8-10,75.2,68.7,59.6,67.1,56.3,47.9,94,66,40,30.01,29.79,18,6,30,0.00
2013-8-11,73.9,63.9,53.8,56.2,51.5,48.4,82,65,46,30.08,30.00,8,4,14,0.00
2013-8-12,75.9,67.4,59.0,59.6,55.1,51.6,77,65,48,30.02,29.90,15,5,20,0.00
2013-8-13,69.7,63.8,60.7,66.8,61.9,57.1,99,94,75,29.90,29.67,11,6,15,0.86
2013-8-14,66.6,58.9,53.0,61.8,52.0,47.0,98,78,63,29.97,29.68,15,6,23,0.02
2013-8-15,70.5,59.6,50.5,55.0,50.0,46.2,87,72,51,30.11,29.97,16,6,18,0.00
2013-8-16,73.9,63.7,53.7,56.2,51.8,49.3,87,67,45,30.18,30.10,9,4,11,0.00
2013-8-17,75.8,64.6,52.8,59.5,54.7,49.7,97,72,43,30.28,30.19,7,3,10,0.00
2013-8-18,71.5,64.1,55.0,64.1,59.1,54.2,98,85,57,30.26,30.08,9,4,10,0.00
2013-8-19,77.8,67.2,57.4,62.0,58.7,55.9,95,75,52,30.08,29.96,10,3,12,0.00
2013-8-20,81.4,70.5,62.4,61.9,59.0,56.3,83,68,47,30.08,29.99,9,4,12,0.00
2013-8-21,82.3,72.9,62.9,66.2,61.4,57.4,87,68,46,30.14,30.01,8,4,13,0.00
2013-8-22,82.3,72.0,62.7,71.0,65.2,60.5,93,80,53,30.01,29.80,13,6,16,0.07
2013-8-23,72.4,65.2,54.7,63.5,56.5,49.3,95,75,57,30.13,29.83,14,7,18,0.00
2013-8-24,72.8,61.2,48.4,52.1,48.0,41.6,97,66,33,30.33,30.14,11,5,16,0.00
2013-8-25,77.3,64.6,50.6,58.2,52.7,48.9,95,68,41,30.37,30.16,13,4,15,0.00
2013-8-26,75.4,65.6,58.2,66.3,61.5,56.7,98,87,73,30.16,29.87,21,7,21,0.21
2013-8-27,81.1,70.7,64.1,69.3,66.3,63.8,99,87,64,29.89,29.82,9,4,14,0.00
2013-8-28,79.0,70.0,62.2,70.4,66.1,60.9,99,88,67,29.95,29.82,30,4,36,0.18
2013-8-29,69.2,62.9,59.2,65.1,61.4,58.3,99,95,85,30.05,29.93,18,4,22,0.22
2013-8-30,80.6,68.1,58.4,69.3,63.2,57.8,99,86,58,30.02,29.81,11,4,11,0.00
2013-8-31,72.8,68.4,64.7,71.5,67.5,64.1,99,97,87,29.80,29.75,12,6,18,0.55